Aérodrome :
LOGIN :

S'inscrire | Disclaimer

   EN    FR    IT 

 










Légende :    VFR   VFR Marginal   IFR   IFR Intensif   IFR Très Intensif
Visi : 
Plafond : 
>= 8 km
>= 3000ft
5 à 8 km
1000 à 3000 ft
1500m à 5 km
500 à 1000 ft
800 à 1500m
200 à 500 ft
< 800m
< 200 ft
Symboles :   Orages  Brouillard  Fortes neiges  Fortes précipitations  Vent > 20 kt
SIGMETs :   Divers  Orages  Givrage  Turbulence  Onde Orograph.  Cendres Volcan.






- Altitude de l'aérodrome : 390 ft
- Code IATA : NQY


EGHQ - Newquay

DERNIER METAR :
  • 040550Z 29014KT 9999 BKN023 14/09 Q1024

METARs EXPIRÉS :
  • 040520Z 29011KT 9999 BKN024 14/09 Q1024
  • 040450Z AUTO 29012KT 9999 OVC023/// 14/09 Q1023
  • 040350Z AUTO 28010KT 9999 OVC025/// 14/09 Q1023
  • 040320Z AUTO 28011KT 9999 OVC024/// 14/09 Q1023

TAF TAF EGHQ
Valide du 04 à 06h jusqu'au 04 à 15h UTC


040504Z 0406/0415 31009KT 9999 SCT025
PROB30
TEMPO 0406/0412 7000 -RADZ BKN014



MET'MAP, la Météo Aéronautique d'un coup d'oeil ! - Copyright ORBIFLY Décembre 2007 - Disclaimer

ORBIFLY MET'MAP TEAM :

Programmation & Développement : Alexandra Zaïnal
Sur une idée originale de : Baudouin d'Aumeries
Soutien technique & logistique : Manuel Goepfert
Assistance : Marc-Olivier Méhu




SOURCES & CREDITS :

   NOAA